Time;durP1;ratioP1;P1;durP2;ratioP2;P2;SDS_P1;SDS_P2;PMS_P1;PMS_P2;Temp;Humidity;BMP_temperature;BMP_pressure;BME280_temperature;BME280_humidity;BME280_pressure;Samples;Min_cycle;Max_cycle;Signal;HPM_P1;HPM_P2
2022/11/13 00:02:11;;;;;;;33.87;14.63;;;10.60;58.60;;;;;;5023600;28;20205;-59
2022/11/13 00:04:36;;;;;;;24.87;13.63;;;10.60;58.90;;;;;;5020145;28;20197;-60
2022/11/13 00:07:02;;;;;;;25.60;16.07;;;10.60;59.10;;;;;;5026979;28;20197;-60
2022/11/13 00:09:28;;;;;;;35.40;13.60;;;10.50;59.30;;;;;;5025639;28;20212;-60
2022/11/13 00:11:53;;;;;;;25.57;11.97;;;10.50;59.30;;;;;;5028910;28;20233;-59
2022/11/13 00:14:19;;;;;;;24.17;12.73;;;10.60;59.40;;;;;;5024419;28;20687;-59
2022/11/13 00:16:44;;;;;;;21.30;12.70;;;10.50;59.20;;;;;;5024368;28;20185;-59
2022/11/13 00:19:10;;;;;;;16.83;11.70;;;10.50;59.20;;;;;;5028508;28;20197;-59
2022/11/13 00:21:36;;;;;;;15.30;12.07;;;10.50;59.20;;;;;;5023863;28;20236;-60
2022/11/13 00:24:01;;;;;;;17.23;10.50;;;10.40;59.20;;;;;;5021706;28;20247;-59
2022/11/13 00:26:29;;;;;;;11.70;10.43;;;10.40;59.50;;;;;;5026473;28;20579;-59
2022/11/13 00:28:59;;;;;;;13.60;12.20;;;10.30;59.20;;;;;;5027166;28;20185;-59
2022/11/13 00:31:25;;;;;;;13.77;10.40;;;10.30;59.30;;;;;;5024349;28;20514;-60
2022/11/13 00:33:51;;;;;;;25.30;13.43;;;10.30;59.40;;;;;;5028844;28;20806;-59
2022/11/13 00:36:19;;;;;;;15.73;11.40;;;10.20;59.70;;;;;;5031505;28;20443;-59
2022/11/13 00:38:45;;;;;;;16.03;11.67;;;10.20;60.00;;;;;;5017494;28;20200;-60
2022/11/13 00:41:11;;;;;;;17.70;11.33;;;10.20;59.90;;;;;;5027176;28;20440;-59
2022/11/13 00:43:37;;;;;;;42.33;12.20;;;10.20;59.90;;;;;;5028397;28;20539;-59
2022/11/13 00:46:02;;;;;;;37.60;12.43;;;10.30;59.90;;;;;;5020929;28;20204;-59
2022/11/13 00:48:28;;;;;;;26.93;12.50;;;10.30;60.10;;;;;;5020556;28;20407;-60
2022/11/13 00:50:54;;;;;;;82.10;14.20;;;10.30;60.30;;;;;;5022205;28;20224;-59
2022/11/13 00:53:21;;;;;;;16.93;12.13;;;10.20;59.90;;;;;;5026492;28;20201;-59
2022/11/13 00:55:46;;;;;;;14.83;10.50;;;10.10;60.10;;;;;;5027085;28;20530;-60
2022/11/13 00:58:12;;;;;;;24.77;11.40;;;10.10;60.40;;;;;;5027760;28;21092;-59
2022/11/13 01:00:40;;;;;;;18.63;11.60;;;10.10;60.30;;;;;;5022699;28;20617;-59
2022/11/13 01:03:05;;;;;;;14.83;10.60;;;10.20;60.40;;;;;;5029053;28;20827;-59
2022/11/13 01:05:35;;;;;;;44.90;12.20;;;10.20;60.00;;;;;;5022274;28;20448;-59
2022/11/13 01:08:01;;;;;;;16.03;10.83;;;10.20;59.90;;;;;;5020280;28;20228;-60
2022/11/13 01:10:26;;;;;;;23.57;11.50;;;10.20;60.00;;;;;;5025488;28;20847;-60
2022/11/13 01:12:52;;;;;;;33.97;10.63;;;10.10;59.80;;;;;;5029230;28;20259;-60
2022/11/13 01:15:18;;;;;;;12.90;10.30;;;10.10;60.60;;;;;;5027027;28;20197;-60
2022/11/13 01:17:43;;;;;;;36.33;9.50;;;10.10;59.90;;;;;;5025808;28;20232;-60
2022/11/13 01:20:09;;;;;;;52.67;11.17;;;10.10;59.90;;;;;;5022839;28;20208;-59
2022/11/13 01:22:35;;;;;;;30.60;12.07;;;10.10;60.00;;;;;;5022339;28;20233;-60
2022/11/13 01:25:00;;;;;;;26.67;10.70;;;10.10;59.90;;;;;;5027599;28;20505;-60
2022/11/13 01:27:26;;;;;;;40.60;11.47;;;10.10;59.90;;;;;;5024143;28;20221;-60
2022/11/13 01:29:52;;;;;;;26.07;9.93;;;10.10;59.90;;;;;;5032036;28;20281;-60
2022/11/13 01:32:17;;;;;;;14.20;8.97;;;10.00;59.30;;;;;;5023358;28;20272;-60
2022/11/13 01:34:43;;;;;;;15.37;8.80;;;9.80;61.30;;;;;;5036896;28;20242;-59
2022/11/13 01:37:10;;;;;;;29.90;9.83;;;9.80;61.60;;;;;;5024915;28;20205;-59
2022/11/13 01:39:36;;;;;;;30.03;9.70;;;9.80;61.80;;;;;;5021492;28;20455;-59
2022/11/13 01:42:01;;;;;;;54.77;10.70;;;9.90;61.90;;;;;;5027213;28;20448;-59
2022/11/13 01:44:50;;;;;;;40.87;9.40;;;9.90;61.90;;;;;;5024896;28;20247;-60
2022/11/13 01:47:17;;;;;;;30.43;10.30;;;9.80;62.00;;;;;;5024764;28;20610;-60
2022/11/13 01:49:44;;;;;;;25.83;9.57;;;9.80;62.10;;;;;;5027116;28;20779;-60
2022/11/13 01:52:14;;;;;;;42.30;11.07;;;9.80;62.00;;;;;;5028297;28;20515;-59
2022/11/13 01:55:02;;;;;;;43.73;10.93;;;9.90;62.00;;;;;;5025279;28;20498;-60
2022/11/13 01:57:28;;;;;;;38.40;9.00;;;9.80;61.80;;;;;;5023799;28;20586;-60
2022/11/13 02:00:01;;;;;;;29.70;9.50;;;9.80;62.00;;;;;;5021068;28;20593;-60
2022/11/13 02:02:27;;;;;;;24.03;9.50;;;9.70;61.80;;;;;;5022966;28;20459;-60
2022/11/13 02:04:52;;;;;;;18.87;8.30;;;9.70;62.00;;;;;;5021548;28;20447;-59
2022/11/13 02:07:21;;;;;;;32.30;8.00;;;9.70;62.50;;;;;;5026325;28;21023;-60
2022/11/13 02:09:50;;;;;;;17.30;9.47;;;9.70;62.50;;;;;;5024059;28;20204;-60
2022/11/13 02:12:31;;;;;;;18.47;9.40;;;9.70;63.40;;;;;;5025204;28;20495;-59
2022/11/13 02:14:58;;;;;;;9.00;8.10;;;9.70;62.60;;;;;;5023462;28;20435;-60
2022/11/13 02:17:31;;;;;;;10.83;8.47;;;9.70;62.30;;;;;;5026341;28;20447;-60
2022/11/13 02:20:01;;;;;;;8.67;7.43;;;9.70;62.30;;;;;;5025554;28;21020;-60
2022/11/13 02:22:50;;;;;;;8.70;7.77;;;9.70;62.00;;;;;;5025055;28;20483;-59
2022/11/13 02:25:18;;;;;;;14.10;7.03;;;9.70;61.80;;;;;;5018403;28;20482;-59
2022/11/13 02:27:46;;;;;;;8.70;7.80;;;9.70;61.60;;;;;;5028232;28;20447;-60
2022/11/13 02:30:15;;;;;;;11.90;7.63;;;9.80;61.60;;;;;;5032724;28;20495;-60
2022/11/13 02:32:43;;;;;;;19.03;7.70;;;9.70;61.30;;;;;;5032622;28;20869;-59
2022/11/13 02:35:10;;;;;;;31.63;8.70;;;9.70;61.20;;;;;;5028136;28;20994;-59
2022/11/13 02:37:35;;;;;;;27.57;7.80;;;9.70;61.40;;;;;;5030908;28;20499;-60
2022/11/13 02:40:01;;;;;;;9.70;7.60;;;9.70;61.30;;;;;;5027490;28;20440;-60
2022/11/13 02:42:26;;;;;;;35.37;8.30;;;9.70;61.80;;;;;;5027809;28;20868;-59
2022/11/13 02:44:52;;;;;;;30.73;8.00;;;9.70;61.70;;;;;;5027488;28;20255;-60
2022/11/13 02:47:18;;;;;;;37.30;8.30;;;9.70;61.90;;;;;;5027722;28;20280;-59
2022/11/13 02:49:43;;;;;;;24.93;8.57;;;9.60;62.00;;;;;;5027472;28;20197;-60
2022/11/13 02:52:09;;;;;;;11.10;7.13;;;9.60;62.70;;;;;;5027718;28;20650;-60
2022/11/13 02:54:34;;;;;;;24.67;7.93;;;9.60;62.70;;;;;;5028789;28;20194;-60
2022/11/13 02:57:00;;;;;;;18.60;8.10;;;9.60;62.80;;;;;;5021512;28;20192;-60
2022/11/13 02:59:25;;;;;;;16.17;8.43;;;9.70;62.60;;;;;;5024631;28;20636;-60
2022/11/13 03:01:51;;;;;;;23.63;9.47;;;9.70;62.40;;;;;;5024091;28;20189;-59
2022/11/13 03:04:16;;;;;;;19.80;7.93;;;9.70;62.20;;;;;;5025865;28;20197;-59
2022/11/13 03:06:42;;;;;;;31.20;8.73;;;9.70;62.20;;;;;;5028435;28;20224;-59
2022/11/13 03:09:07;;;;;;;15.23;8.07;;;9.60;62.40;;;;;;5028560;28;20280;-60
2022/11/13 03:11:33;;;;;;;16.60;8.50;;;9.60;62.50;;;;;;5025093;28;20247;-59
2022/11/13 03:13:58;;;;;;;47.33;9.00;;;9.70;62.70;;;;;;5027548;28;20197;-59
2022/11/13 03:16:24;;;;;;;41.13;8.80;;;9.70;62.80;;;;;;5027022;28;20208;-59
2022/11/13 03:18:50;;;;;;;32.83;7.90;;;9.60;62.50;;;;;;5025057;28;20633;-60
2022/11/13 03:21:15;;;;;;;24.40;8.10;;;9.70;62.50;;;;;;5026351;28;20265;-60
2022/11/13 03:23:43;;;;;;;31.37;9.23;;;9.60;62.30;;;;;;5024526;28;20259;-59
2022/11/13 03:26:12;;;;;;;37.63;8.23;;;9.60;62.30;;;;;;5028170;28;20194;-60
2022/11/13 03:28:37;;;;;;;29.03;8.77;;;9.60;62.40;;;;;;5026602;28;20448;-60
2022/11/13 03:31:03;;;;;;;30.10;8.20;;;9.60;62.60;;;;;;5025722;28;20848;-59
2022/11/13 03:33:29;;;;;;;19.90;7.50;;;9.60;62.50;;;;;;5024263;28;20198;-60
2022/11/13 03:35:55;;;;;;;18.90;7.43;;;9.50;62.70;;;;;;5025184;28;20443;-59
2022/11/13 03:38:21;;;;;;;27.97;8.40;;;9.50;63.00;;;;;;5021548;28;20205;-59
2022/11/13 03:40:47;;;;;;;21.23;7.00;;;9.60;63.30;;;;;;5027802;28;20975;-60
2022/11/13 03:43:13;;;;;;;16.00;6.57;;;9.60;63.00;;;;;;5027794;28;20526;-60
2022/11/13 03:45:39;;;;;;;31.70;8.53;;;9.50;62.90;;;;;;5027372;28;21046;-60
2022/11/13 03:48:04;;;;;;;17.50;7.50;;;9.50;63.00;;;;;;5027873;28;20209;-60
2022/11/13 03:50:30;;;;;;;29.13;7.73;;;9.50;62.80;;;;;;5024901;28;20272;-60
2022/11/13 03:52:56;;;;;;;17.97;7.30;;;9.50;62.40;;;;;;5031596;28;20230;-60
2022/11/13 03:55:21;;;;;;;15.37;8.03;;;9.60;62.60;;;;;;5028563;28;20679;-60
2022/11/13 03:57:47;;;;;;;18.67;8.10;;;9.60;62.40;;;;;;5031690;28;20189;-60
2022/11/13 04:00:13;;;;;;;14.03;7.30;;;9.50;62.70;;;;;;5027469;28;20248;-60
2022/11/13 04:02:39;;;;;;;9.77;7.43;;;9.60;62.90;;;;;;5031541;28;20204;-60
2022/11/13 04:05:07;;;;;;;8.90;7.30;;;9.60;62.70;;;;;;5030312;28;20850;-60
2022/11/13 04:07:33;;;;;;;7.17;6.47;;;9.60;62.50;;;;;;5030084;28;20451;-59
2022/11/13 04:09:58;;;;;;;14.00;6.67;;;9.70;62.30;;;;;;5031426;28;20444;-60
2022/11/13 04:12:24;;;;;;;7.23;6.53;;;9.70;62.20;;;;;;5030990;28;20228;-60
2022/11/13 04:14:50;;;;;;;11.07;6.77;;;9.60;62.20;;;;;;5030103;28;20200;-60
2022/11/13 04:17:15;;;;;;;23.57;8.27;;;9.70;62.30;;;;;;5029997;28;20633;-60
2022/11/13 04:19:41;;;;;;;25.93;8.13;;;9.70;62.00;;;;;;5022846;28;20217;-60
2022/11/13 04:22:06;;;;;;;19.23;7.20;;;9.70;61.90;;;;;;5029966;28;20244;-60
2022/11/13 04:24:32;;;;;;;25.37;8.03;;;9.60;62.00;;;;;;5027645;28;20185;-60
2022/11/13 04:26:57;;;;;;;9.23;7.60;;;9.60;62.90;;;;;;5032216;28;20229;-60
2022/11/13 04:29:23;;;;;;;20.07;7.10;;;9.60;62.30;;;;;;5029899;28;20198;-59
2022/11/13 04:31:48;;;;;;;16.70;7.40;;;9.60;62.30;;;;;;5035076;28;20225;-60
2022/11/13 04:34:14;;;;;;;16.00;7.20;;;9.60;62.20;;;;;;5029097;28;20203;-60
2022/11/13 04:36:40;;;;;;;18.77;9.10;;;9.60;62.30;;;;;;5029151;28;20487;-60
2022/11/13 04:39:05;;;;;;;19.23;7.13;;;9.60;62.40;;;;;;5028800;28;20201;-60
2022/11/13 04:44:15;;;;;;;35.90;8.17;;;9.60;62.60;;;;;;5025515;28;20195;-59
2022/11/13 04:46:41;;;;;;;28.03;8.10;;;9.50;62.30;;;;;;5021789;28;20444;-60
2022/11/13 04:49:06;;;;;;;20.27;7.50;;;9.20;62.60;;;;;;5026319;28;20209;-60
2022/11/13 04:51:32;;;;;;;15.53;8.40;;;9.20;63.20;;;;;;5023922;28;20592;-59
2022/11/13 04:53:57;;;;;;;34.37;9.30;;;9.30;63.40;;;;;;5030596;28;20205;-59
2022/11/13 04:56:23;;;;;;;8.57;7.70;;;9.30;63.60;;;;;;5022720;28;20197;-59
2022/11/13 04:58:49;;;;;;;15.80;8.23;;;9.30;63.70;;;;;;5025725;28;20272;-59
2022/11/13 05:01:14;;;;;;;32.80;7.67;;;9.40;63.90;;;;;;5020565;28;20201;-59
2022/11/13 05:03:40;;;;;;;19.87;10.17;;;9.50;64.00;;;;;;5022720;28;20268;-59
2022/11/13 05:06:08;;;;;;;18.27;7.73;;;9.40;63.60;;;;;;5029063;28;20193;-60
2022/11/13 05:08:34;;;;;;;33.17;7.90;;;9.50;63.90;;;;;;5024689;28;20194;-64
2022/11/13 05:11:00;;;;;;;40.43;8.40;;;9.50;63.50;;;;;;5027807;28;20470;-60
2022/11/13 05:13:28;;;;;;;14.10;7.30;;;9.60;63.30;;;;;;5027245;28;21042;-60
2022/11/13 05:16:01;;;;;;;31.50;8.20;;;9.60;63.00;;;;;;5028348;28;20803;-59
2022/11/13 05:18:27;;;;;;;16.73;7.83;;;9.60;63.00;;;;;;5027350;28;20436;-59
2022/11/13 05:20:52;;;;;;;18.20;8.70;;;9.50;63.10;;;;;;5028984;28;22505;-59
2022/11/13 05:23:18;;;;;;;23.10;8.30;;;9.50;63.50;;;;;;5028187;28;20302;-60
2022/11/13 05:25:43;;;;;;;25.53;9.00;;;9.50;63.50;;;;;;5029320;28;20193;-59
2022/11/13 05:28:09;;;;;;;17.20;7.80;;;9.50;63.50;;;;;;5024689;28;20284;-60
2022/11/13 05:30:34;;;;;;;16.27;8.10;;;9.50;63.60;;;;;;5022842;28;20752;-59
2022/11/13 05:33:00;;;;;;;22.93;7.93;;;9.60;63.90;;;;;;5027013;28;20261;-60
2022/11/13 05:35:25;;;;;;;33.63;9.33;;;9.50;63.90;;;;;;5025984;28;20193;-59
2022/11/13 05:37:51;;;;;;;28.83;7.77;;;9.60;63.90;;;;;;5023564;28;20201;-59
2022/11/13 05:40:17;;;;;;;32.67;8.00;;;9.50;63.60;;;;;;5031116;28;20208;-59
2022/11/13 05:42:42;;;;;;;17.73;6.73;;;9.60;63.40;;;;;;5022454;28;20220;-59
2022/11/13 05:45:08;;;;;;;23.27;8.10;;;9.60;63.40;;;;;;5021611;28;20201;-60
2022/11/13 05:47:34;;;;;;;13.43;8.00;;;9.60;63.40;;;;;;5029799;28;20247;-59
2022/11/13 05:49:59;;;;;;;21.20;7.47;;;9.60;63.40;;;;;;5025153;28;20469;-59
2022/11/13 05:52:25;;;;;;;17.10;8.30;;;9.70;63.50;;;;;;5025191;28;20319;-59
2022/11/13 05:54:50;;;;;;;10.00;7.90;;;9.70;63.50;;;;;;5027119;28;20193;-60
2022/11/13 05:57:16;;;;;;;20.57;8.00;;;9.70;63.50;;;;;;5020562;28;20220;-59
2022/11/13 05:59:42;;;;;;;13.57;8.30;;;9.70;63.60;;;;;;5018679;28;20186;-60
2022/11/13 06:02:07;;;;;;;27.37;9.97;;;9.70;63.60;;;;;;5026865;28;20664;-60
2022/11/13 06:04:33;;;;;;;10.43;8.60;;;9.60;63.60;;;;;;5024195;28;20196;-59
2022/11/13 06:06:58;;;;;;;23.43;8.93;;;9.50;64.00;;;;;;5023549;28;20193;-60
2022/11/13 06:09:24;;;;;;;12.67;8.63;;;9.50;64.20;;;;;;5018348;28;20194;-59
2022/11/13 06:11:49;;;;;;;24.50;7.47;;;9.60;64.00;;;;;;5026484;28;20224;-59
2022/11/13 06:14:15;;;;;;;10.10;6.67;;;9.70;65.30;;;;;;5025518;28;20738;-59
2022/11/13 06:16:40;;;;;;;12.73;7.83;;;9.90;68.20;;;;;;5025484;28;20224;-59
2022/11/13 06:19:08;;;;;;;7.80;7.00;;;10.30;69.70;;;;;;5025362;28;20265;-59
2022/11/13 06:21:37;;;;;;;8.73;7.43;;;10.70;68.60;;;;;;5029039;28;20248;-59
2022/11/13 06:24:03;;;;;;;18.53;7.27;;;10.80;66.80;;;;;;5021850;28;20475;-59
2022/11/13 06:26:32;;;;;;;12.00;7.70;;;10.50;60.50;;;;;;5020667;28;20499;-59
2022/11/13 06:28:58;;;;;;;12.93;7.23;;;10.50;61.50;;;;;;5021696;28;20464;-60
2022/11/13 06:31:27;;;;;;;19.97;7.53;;;10.50;60.80;;;;;;5027442;28;20566;-59
2022/11/13 06:33:54;;;;;;;13.00;7.40;;;10.40;59.90;;;;;;5021664;28;20502;-59
2022/11/13 06:36:23;;;;;;;13.13;7.40;;;10.30;60.00;;;;;;5023644;28;20542;-60
2022/11/13 06:38:49;;;;;;;10.20;7.97;;;10.10;59.80;;;;;;5026600;28;20442;-59
2022/11/13 06:41:16;;;;;;;16.53;7.60;;;10.10;60.20;;;;;;5027095;28;20457;-60
2022/11/13 06:43:43;;;;;;;22.13;8.03;;;10.10;60.40;;;;;;5025862;28;21007;-59
2022/11/13 06:46:20;;;;;;;10.87;7.13;;;10.00;60.50;;;;;;5028118;28;20467;-59
2022/11/13 06:48:46;;;;;;;18.07;7.33;;;10.00;60.70;;;;;;5027586;28;20435;-59
2022/11/13 06:51:16;;;;;;;10.47;7.60;;;10.00;60.70;;;;;;5029290;28;20468;-59
2022/11/13 06:53:42;;;;;;;17.90;8.47;;;10.00;61.80;;;;;;5024315;28;20454;-60
2022/11/13 06:56:08;;;;;;;21.53;9.20;;;9.90;62.30;;;;;;5024970;28;20448;-59
2022/11/13 06:58:34;;;;;;;12.63;8.03;;;9.80;62.20;;;;;;5027430;28;20205;-60
2022/11/13 07:01:11;;;;;;;8.40;7.60;;;9.70;62.90;;;;;;5027196;28;20548;-60
2022/11/13 07:03:37;;;;;;;29.17;8.57;;;9.70;63.20;;;;;;5024556;28;20546;-59
2022/11/13 07:06:04;;;;;;;21.00;8.20;;;9.70;63.50;;;;;;5034795;28;20444;-60
2022/11/13 07:08:31;;;;;;;27.63;8.60;;;9.80;63.40;;;;;;5028153;28;20447;-59
2022/11/13 07:10:58;;;;;;;9.63;7.63;;;9.70;62.60;;;;;;5028435;28;20528;-60
2022/11/13 07:13:24;;;;;;;22.70;8.23;;;9.70;63.00;;;;;;5024714;28;20446;-60
2022/11/13 07:15:50;;;;;;;12.13;7.67;;;9.70;63.40;;;;;;5026148;28;20428;-59
2022/11/13 07:18:15;;;;;;;21.07;8.13;;;9.50;63.70;;;;;;5024072;28;20446;-59
2022/11/13 07:20:41;;;;;;;24.50;10.60;;;9.50;64.50;;;;;;5022986;28;20199;-59
2022/11/13 07:23:07;;;;;;;19.83;9.80;;;9.60;64.00;;;;;;5023770;28;20197;-59
2022/11/13 07:25:33;;;;;;;9.60;8.50;;;9.60;63.70;;;;;;5030433;28;20288;-57
2022/11/13 07:27:59;;;;;;;45.20;9.93;;;9.60;63.50;;;;;;5028287;28;20877;-58
2022/11/13 07:30:25;;;;;;;18.73;9.07;;;9.60;63.40;;;;;;5030548;28;20269;-58
2022/11/13 07:32:50;;;;;;;11.13;8.77;;;9.60;63.60;;;;;;5031921;28;20335;-57
2022/11/13 07:35:16;;;;;;;16.30;8.70;;;9.60;63.60;;;;;;5026554;28;20440;-58
2022/11/13 07:37:42;;;;;;;19.70;7.70;;;9.60;64.10;;;;;;5029695;28;20190;-58
2022/11/13 07:40:10;;;;;;;12.53;7.80;;;9.70;64.20;;;;;;5025694;28;20197;-57
2022/11/13 07:42:35;;;;;;;10.30;8.90;;;9.70;63.80;;;;;;5028777;28;20537;-58
2022/11/13 07:45:01;;;;;;;10.73;9.53;;;9.70;63.70;;;;;;5030360;28;20934;-58
2022/11/13 07:47:26;;;;;;;24.30;8.30;;;9.80;63.90;;;;;;5029071;28;20220;-58
2022/11/13 07:49:52;;;;;;;10.40;7.17;;;9.80;63.50;;;;;;5035667;28;20915;-58
2022/11/13 07:52:18;;;;;;;24.27;9.30;;;9.90;63.20;;;;;;5050128;28;20220;-58
2022/11/13 07:54:43;;;;;;;13.33;8.70;;;9.80;62.80;;;;;;5053179;28;20192;-58
2022/11/13 07:57:09;;;;;;;20.60;8.33;;;9.90;62.90;;;;;;5052799;28;20197;-59
2022/11/13 07:59:34;;;;;;;19.93;7.80;;;9.90;63.10;;;;;;5048950;28;20185;-58
2022/11/13 08:02:00;;;;;;;10.07;9.07;;;9.80;64.10;;;;;;5042881;28;20189;-58
2022/11/13 08:04:26;;;;;;;17.97;7.53;;;9.90;63.40;;;;;;5032890;28;20189;-58
2022/11/13 08:06:51;;;;;;;13.73;7.83;;;9.80;63.00;;;;;;5033158;28;20601;-58
2022/11/13 08:09:17;;;;;;;17.50;8.60;;;9.80;62.60;;;;;;5033661;28;20272;-58
2022/11/13 08:11:43;;;;;;;13.20;8.40;;;9.80;62.50;;;;;;5027994;28;20233;-58
2022/11/13 08:14:09;;;;;;;35.13;9.40;;;9.80;62.50;;;;;;5033488;28;20189;-58
2022/11/13 08:16:35;;;;;;;8.33;7.50;;;9.80;62.70;;;;;;5033658;28;20193;-58
2022/11/13 08:19:01;;;;;;;24.40;9.50;;;9.80;62.90;;;;;;5033346;28;20459;-58
2022/11/13 08:21:26;;;;;;;11.50;8.50;;;9.80;63.20;;;;;;5033081;28;20237;-57
2022/11/13 08:23:52;;;;;;;10.87;8.87;;;9.80;63.20;;;;;;5032352;28;20447;-58
2022/11/13 08:26:17;;;;;;;10.10;8.83;;;9.70;62.80;;;;;;5048010;28;20189;-58
2022/11/13 08:28:43;;;;;;;10.23;9.20;;;9.80;63.10;;;;;;5053075;28;20666;-57
2022/11/13 08:31:11;;;;;;;19.53;8.97;;;9.70;63.20;;;;;;5053581;28;20184;-58
2022/11/13 08:33:37;;;;;;;10.23;8.40;;;9.80;63.50;;;;;;5050847;28;20423;-58
2022/11/13 08:36:03;;;;;;;27.13;9.97;;;9.90;63.50;;;;;;5049577;28;20430;-58
2022/11/13 08:38:29;;;;;;;15.97;9.13;;;9.90;63.00;;;;;;5051896;28;20426;-58
2022/11/13 08:40:58;;;;;;;33.83;10.10;;;9.90;62.80;;;;;;5053543;28;20656;-57
2022/11/13 08:43:25;;;;;;;12.20;9.27;;;9.90;62.90;;;;;;5052634;28;20192;-57
2022/11/13 08:45:50;;;;;;;12.57;8.03;;;9.90;63.00;;;;;;5041028;28;20439;-57
2022/11/13 08:48:16;;;;;;;17.40;9.37;;;10.00;62.50;;;;;;5046360;28;20454;-57
2022/11/13 08:50:42;;;;;;;13.30;8.90;;;9.90;63.60;;;;;;5053056;28;20250;-57
2022/11/13 08:53:08;;;;;;;9.67;7.87;;;10.00;62.60;;;;;;5051504;28;20252;-58
2022/11/13 08:55:34;;;;;;;7.90;7.10;;;10.00;62.30;;;;;;5043349;28;20478;-57
2022/11/13 08:58:01;;;;;;;19.30;8.60;;;10.00;62.00;;;;;;5042443;28;20191;-58
2022/11/13 09:00:28;;;;;;;18.63;8.57;;;10.00;61.80;;;;;;5052495;28;20237;-58
2022/11/13 09:02:55;;;;;;;18.13;9.10;;;10.00;62.00;;;;;;5068358;28;21002;-58
2022/11/13 09:05:22;;;;;;;11.63;9.63;;;10.00;62.30;;;;;;5052470;28;20902;-57
2022/11/13 09:07:47;;;;;;;12.27;8.00;;;10.00;62.40;;;;;;5029040;28;20451;-58
2022/11/13 09:10:13;;;;;;;16.17;9.90;;;10.10;62.50;;;;;;5032523;28;20957;-58
2022/11/13 09:12:39;;;;;;;11.83;9.23;;;10.10;62.40;;;;;;5032980;28;20225;-58
2022/11/13 09:15:05;;;;;;;11.90;9.83;;;10.00;63.30;;;;;;5032133;28;20432;-58
2022/11/13 09:17:30;;;;;;;16.47;9.53;;;10.10;63.60;;;;;;5032126;28;20193;-58
2022/11/13 09:19:56;;;;;;;12.50;8.93;;;10.00;63.60;;;;;;5032797;28;20435;-57
2022/11/13 09:22:21;;;;;;;19.00;9.90;;;10.10;63.50;;;;;;5046128;28;20316;-57
2022/11/13 09:24:47;;;;;;;15.43;10.10;;;10.20;63.00;;;;;;5032203;28;20197;-58
2022/11/13 09:27:13;;;;;;;10.50;8.97;;;10.20;62.80;;;;;;5032366;28;20276;-58
2022/11/13 09:29:38;;;;;;;8.80;7.83;;;10.10;62.40;;;;;;5031964;28;20196;-58
2022/11/13 09:32:04;;;;;;;8.73;7.87;;;10.10;62.60;;;;;;5032365;28;20304;-58
2022/11/13 09:34:30;;;;;;;8.77;7.97;;;10.10;62.20;;;;;;5047612;28;20195;-58
2022/11/13 09:36:55;;;;;;;8.90;8.00;;;10.20;62.20;;;;;;5052035;28;20249;-58
2022/11/13 09:39:21;;;;;;;8.63;7.80;;;10.20;62.00;;;;;;5051686;28;20203;-57
2022/11/13 09:41:52;;;;;;;9.90;9.00;;;10.30;61.80;;;;;;5052079;28;20199;-58
2022/11/13 09:44:30;;;;;;;10.50;9.33;;;10.30;61.60;;;;;;5039353;28;20198;-58
2022/11/13 09:47:09;;;;;;;10.50;9.47;;;10.30;61.40;;;;;;5042938;28;20534;-58
2022/11/13 09:49:44;;;;;;;14.33;10.23;;;10.30;61.90;;;;;;5031769;28;20424;-58
2022/11/13 09:52:14;;;;;;;10.57;9.50;;;10.30;62.30;;;;;;5032821;28;20548;-57
2022/11/13 09:54:40;;;;;;;18.20;11.77;;;10.30;62.30;;;;;;5051813;28;20423;-58
2022/11/13 09:57:30;;;;;;;11.47;10.23;;;10.30;62.00;;;;;;5050847;28;20501;-58
2022/11/13 10:00:06;;;;;;;14.70;11.33;;;10.20;61.70;;;;;;5033594;28;20200;-58
2022/11/13 10:02:50;;;;;;;14.97;10.43;;;10.20;62.20;;;;;;5040032;28;20477;-58
2022/11/13 10:05:21;;;;;;;12.37;11.10;;;10.40;62.10;;;;;;5051342;28;20891;-58
2022/11/13 10:08:01;;;;;;;12.60;11.30;;;10.30;61.70;;;;;;5051480;28;20962;-58
2022/11/13 10:10:35;;;;;;;12.23;10.93;;;10.50;61.70;;;;;;5035727;28;20446;-58
2022/11/13 10:13:02;;;;;;;11.33;10.13;;;10.50;62.10;;;;;;5050010;28;20489;-58
2022/11/13 10:15:29;;;;;;;12.43;11.07;;;10.50;62.00;;;;;;5051241;28;20995;-58
2022/11/13 10:18:17;;;;;;;16.30;11.40;;;10.50;61.90;;;;;;5046245;28;20416;-58
2022/11/13 10:20:48;;;;;;;13.60;11.90;;;10.60;61.80;;;;;;5029378;28;20451;-58
2022/11/13 10:23:20;;;;;;;14.77;12.00;;;10.60;61.40;;;;;;5038462;28;20479;-58
2022/11/13 10:25:47;;;;;;;13.03;11.60;;;10.70;61.40;;;;;;5031727;28;20913;-58
2022/11/13 10:28:18;;;;;;;12.00;10.73;;;10.70;61.30;;;;;;5031304;28;20815;-58
2022/11/13 10:30:45;;;;;;;14.27;11.50;;;10.60;61.60;;;;;;5030748;28;20444;-58
2022/11/13 10:33:16;;;;;;;11.40;10.30;;;10.60;61.70;;;;;;5050419;28;20478;-58
2022/11/13 10:35:45;;;;;;;11.60;10.40;;;10.60;61.80;;;;;;5051287;28;20411;-58
2022/11/13 10:38:21;;;;;;;12.50;11.20;;;10.70;62.00;;;;;;5051092;28;20435;-58
2022/11/13 10:40:47;;;;;;;12.17;10.87;;;10.80;61.60;;;;;;5049094;28;20513;-58
2022/11/13 10:43:15;;;;;;;13.00;11.70;;;10.90;61.30;;;;;;5024551;28;20583;-58
2022/11/13 10:46:03;;;;;;;12.20;11.00;;;10.80;61.60;;;;;;5030155;28;20235;-58
2022/11/13 10:48:32;;;;;;;13.90;12.50;;;10.90;61.30;;;;;;5039053;28;20439;-58
2022/11/13 10:51:20;;;;;;;12.73;11.53;;;11.00;60.90;;;;;;5051192;28;20438;-58
2022/11/13 10:53:46;;;;;;;11.70;10.50;;;11.10;61.40;;;;;;5050112;28;20423;-57
2022/11/13 10:56:28;;;;;;;12.47;10.50;;;11.10;61.20;;;;;;5050635;28;20419;-57
2022/11/13 10:59:09;;;;;;;11.60;10.40;;;11.10;60.70;;;;;;5048471;28;20530;-58
2022/11/13 11:01:36;;;;;;;11.60;10.40;;;11.30;60.50;;;;;;5052781;28;20941;-58
2022/11/13 11:04:26;;;;;;;12.97;11.57;;;11.30;60.50;;;;;;5054817;28;20427;-57
2022/11/13 11:06:53;;;;;;;11.50;10.30;;;11.30;60.60;;;;;;5053419;28;20449;-58
2022/11/13 11:09:26;;;;;;;11.63;10.60;;;11.40;60.40;;;;;;5034851;28;20508;-57
2022/11/13 11:12:16;;;;;;;12.43;10.33;;;11.40;60.90;;;;;;5052019;28;20483;-58
2022/11/13 11:14:55;;;;;;;11.10;10.00;;;11.40;60.90;;;;;;5054517;28;20439;-57
2022/11/13 11:17:24;;;;;;;12.73;11.43;;;11.40;62.10;;;;;;5054549;28;20477;-58
2022/11/13 11:20:21;;;;;;;12.10;11.00;;;11.40;62.10;;;;;;5049120;28;20533;-58
2022/11/13 11:22:58;;;;;;;13.23;11.97;;;11.60;62.60;;;;;;5048568;28;20471;-58
2022/11/13 11:25:24;;;;;;;12.07;10.80;;;11.70;61.70;;;;;;5032160;28;20455;-59
2022/11/13 11:28:30;;;;;;;12.10;10.83;;;11.80;61.40;;;;;;5031247;28;20472;-59
2022/11/13 11:31:34;;;;;;;12.20;11.00;;;11.90;61.70;;;;;;5000036;28;20209;-59
2022/11/13 11:34:15;;;;;;;12.00;10.70;;;11.60;62.40;;;;;;5029996;28;20462;-59
2022/11/13 11:37:17;;;;;;;12.50;11.30;;;12.00;62.80;;;;;;5031506;28;20508;-59
2022/11/13 11:39:54;;;;;;;14.33;12.43;;;12.20;62.80;;;;;;5036139;28;20442;-59
2022/11/13 11:42:48;;;;;;;13.27;11.87;;;12.50;61.90;;;;;;5026223;28;20538;-59
2022/11/13 11:45:31;;;;;;;12.20;11.07;;;12.60;61.00;;;;;;5027137;28;20456;-59
2022/11/13 11:47:58;;;;;;;12.03;10.77;;;12.80;60.20;;;;;;5029827;28;20447;-60
2022/11/13 11:50:57;;;;;;;12.90;11.60;;;12.80;59.90;;;;;;5038462;28;20498;-60
2022/11/13 11:53:44;;;;;;;12.10;11.00;;;12.90;60.20;;;;;;5024734;28;20534;-59
2022/11/13 11:56:35;;;;;;;11.70;10.53;;;13.10;59.30;;;;;;5030310;28;20531;-60
2022/11/13 11:59:09;;;;;;;12.93;11.73;;;13.10;58.70;;;;;;5030605;28;20471;-60
2022/11/13 12:02:05;;;;;;;11.50;10.40;;;13.20;58.50;;;;;;5029752;28;20475;-60
2022/11/13 12:04:49;;;;;;;12.67;11.40;;;13.30;58.60;;;;;;5029399;28;20451;-60
2022/11/13 12:07:37;;;;;;;11.93;10.83;;;13.30;58.30;;;;;;5034648;28;20488;-59
2022/11/13 12:10:17;;;;;;;12.30;11.10;;;13.30;58.50;;;;;;5027632;28;20455;-60
2022/11/13 12:13:19;;;;;;;12.57;11.27;;;13.50;59.00;;;;;;5028795;28;20895;-61
2022/11/13 12:16:14;;;;;;;12.10;10.40;;;13.70;58.20;;;;;;5031290;28;20482;-60
2022/11/13 12:18:59;;;;;;;12.47;11.13;;;13.70;57.60;;;;;;5028578;28;20529;-60
2022/11/13 12:22:02;;;;;;;11.60;10.40;;;13.90;57.00;;;;;;5032130;28;20570;-60
2022/11/13 12:24:49;;;;;;;11.63;10.50;;;14.00;56.60;;;;;;5014231;28;20447;-60
2022/11/13 12:27:49;;;;;;;12.90;11.60;;;14.10;56.80;;;;;;5029348;28;20470;-60
2022/11/13 12:30:24;;;;;;;11.70;10.60;;;14.10;57.20;;;;;;4987416;28;20807;-60
2022/11/13 12:32:58;;;;;;;11.30;10.30;;;14.20;57.10;;;;;;5032221;28;20568;-60
2022/11/13 12:35:25;;;;;;;10.30;9.37;;;14.50;57.20;;;;;;5028115;28;20812;-59
2022/11/13 12:38:06;;;;;;;11.00;10.00;;;14.60;56.60;;;;;;5028206;28;20493;-59
2022/11/13 12:40:41;;;;;;;11.77;10.67;;;14.90;56.00;;;;;;5032475;28;20803;-59
2022/11/13 12:43:28;;;;;;;10.73;9.83;;;15.00;56.00;;;;;;5028930;28;20443;-59
2022/11/13 12:45:59;;;;;;;11.27;10.27;;;15.30;55.80;;;;;;5033696;28;20451;-59
2022/11/13 12:48:45;;;;;;;11.40;10.30;;;15.30;56.20;;;;;;5024304;28;20439;-59
2022/11/13 12:51:14;;;;;;;11.20;10.10;;;15.40;55.90;;;;;;5026442;28;20537;-60
2022/11/13 12:53:47;;;;;;;11.57;10.47;;;15.60;55.50;;;;;;5027809;28;20476;-59